sensor_id;sensor_type;location;lat;lon;timestamp;pressure;altitude;pressure_sealevel;temperature;humidity
18813;BME280;9534;51.140;6.296;2023-05-16T00:01:55;100684.69;;;9.67;100.00
18813;BME280;9534;51.140;6.296;2023-05-16T00:05:58;100695.59;;;9.67;100.00
18813;BME280;9534;51.140;6.296;2023-05-16T00:10:03;100691.75;;;9.55;100.00
18813;BME280;9534;51.140;6.296;2023-05-16T00:14:06;100691.09;;;9.47;100.00
18813;BME280;9534;51.140;6.296;2023-05-16T00:18:11;100693.16;;;9.38;100.00
18813;BME280;9534;51.140;6.296;2023-05-16T00:22:16;100693.56;;;9.35;100.00
18813;BME280;9534;51.140;6.296;2023-05-16T00:26:19;100704.50;;;9.35;100.00
18813;BME280;9534;51.140;6.296;2023-05-16T00:30:22;100700.72;;;9.36;100.00
18813;BME280;9534;51.140;6.296;2023-05-16T00:34:28;100696.06;;;9.30;100.00
18813;BME280;9534;51.140;6.296;2023-05-16T00:38:31;100697.75;;;9.31;100.00
18813;BME280;9534;51.140;6.296;2023-05-16T00:42:34;100702.56;;;9.29;100.00
18813;BME280;9534;51.140;6.296;2023-05-16T00:46:37;100698.47;;;9.19;100.00
18813;BME280;9534;51.140;6.296;2023-05-16T00:50:42;100698.94;;;9.22;100.00
18813;BME280;9534;51.140;6.296;2023-05-16T00:54:46;100698.69;;;9.17;100.00
18813;BME280;9534;51.140;6.296;2023-05-16T00:58:49;100705.59;;;9.13;100.00
18813;BME280;9534;51.140;6.296;2023-05-16T01:02:52;100703.91;;;9.12;100.00
18813;BME280;9534;51.140;6.296;2023-05-16T01:06:57;100708.50;;;9.12;100.00
18813;BME280;9534;51.140;6.296;2023-05-16T01:11:01;100704.31;;;9.09;100.00
18813;BME280;9534;51.140;6.296;2023-05-16T01:15:08;100706.56;;;9.06;100.00
18813;BME280;9534;51.140;6.296;2023-05-16T01:19:13;100701.72;;;9.01;100.00
18813;BME280;9534;51.140;6.296;2023-05-16T01:23:31;100700.25;;;8.99;100.00
18813;BME280;9534;51.140;6.296;2023-05-16T01:27:38;100708.47;;;9.05;100.00
18813;BME280;9534;51.140;6.296;2023-05-16T01:31:42;100718.97;;;9.02;100.00
18813;BME280;9534;51.140;6.296;2023-05-16T01:35:48;100713.91;;;8.99;100.00
18813;BME280;9534;51.140;6.296;2023-05-16T01:39:56;100717.81;;;8.90;100.00
18813;BME280;9534;51.140;6.296;2023-05-16T01:44:04;100712.53;;;8.88;100.00
18813;BME280;9534;51.140;6.296;2023-05-16T01:48:17;100716.06;;;8.82;100.00
18813;BME280;9534;51.140;6.296;2023-05-16T01:52:24;100724.63;;;8.79;100.00
18813;BME280;9534;51.140;6.296;2023-05-16T01:56:29;100722.28;;;8.76;100.00
18813;BME280;9534;51.140;6.296;2023-05-16T02:00:34;100727.50;;;8.71;100.00
18813;BME280;9534;51.140;6.296;2023-05-16T02:04:38;100727.88;;;8.68;100.00
18813;BME280;9534;51.140;6.296;2023-05-16T02:08:41;100729.56;;;8.69;100.00
18813;BME280;9534;51.140;6.296;2023-05-16T02:12:44;100720.16;;;8.72;100.00
18813;BME280;9534;51.140;6.296;2023-05-16T02:16:49;100729.56;;;8.69;100.00
18813;BME280;9534;51.140;6.296;2023-05-16T02:20:53;100737.09;;;8.67;100.00
18813;BME280;9534;51.140;6.296;2023-05-16T02:24:56;100734.53;;;8.60;100.00
18813;BME280;9534;51.140;6.296;2023-05-16T02:28:59;100734.53;;;8.60;100.00
18813;BME280;9534;51.140;6.296;2023-05-16T02:33:04;100755.06;;;8.56;100.00
18813;BME280;9534;51.140;6.296;2023-05-16T02:37:08;100754.03;;;8.57;100.00
18813;BME280;9534;51.140;6.296;2023-05-16T02:41:14;100748.31;;;8.52;100.00
18813;BME280;9534;51.140;6.296;2023-05-16T02:45:17;100763.75;;;8.45;100.00
18813;BME280;9534;51.140;6.296;2023-05-16T02:49:22;100764.91;;;8.36;100.00
18813;BME280;9534;51.140;6.296;2023-05-16T02:53:26;100763.22;;;8.20;100.00
18813;BME280;9534;51.140;6.296;2023-05-16T02:57:30;100775.94;;;8.13;100.00
18813;BME280;9534;51.140;6.296;2023-05-16T03:01:33;100785.44;;;8.03;100.00
18813;BME280;9534;51.140;6.296;2023-05-16T03:05:39;100781.50;;;7.91;100.00
18813;BME280;9534;51.140;6.296;2023-05-16T03:09:42;100789.78;;;7.83;100.00
18813;BME280;9534;51.140;6.296;2023-05-16T03:13:45;100797.66;;;7.78;100.00
18813;BME280;9534;51.140;6.296;2023-05-16T03:17:48;100801.91;;;7.66;100.00
18813;BME280;9534;51.140;6.296;2023-05-16T03:21:53;100793.47;;;7.61;100.00
18813;BME280;9534;51.140;6.296;2023-05-16T03:25:56;100791.50;;;7.55;100.00
18813;BME280;9534;51.140;6.296;2023-05-16T03:29:59;100794.28;;;7.47;100.00
18813;BME280;9534;51.140;6.296;2023-05-16T03:34:02;100791.66;;;7.39;100.00
18813;BME280;9534;51.140;6.296;2023-05-16T03:38:07;100801.59;;;7.32;100.00
18813;BME280;9534;51.140;6.296;2023-05-16T03:42:10;100808.81;;;7.25;100.00
18813;BME280;9534;51.140;6.296;2023-05-16T03:46:13;100816.69;;;7.20;100.00
18813;BME280;9534;51.140;6.296;2023-05-16T03:50:16;100831.69;;;7.16;100.00
18813;BME280;9534;51.140;6.296;2023-05-16T03:54:21;100829.31;;;7.13;100.00
18813;BME280;9534;51.140;6.296;2023-05-16T03:58:24;100835.50;;;7.07;100.00
18813;BME280;9534;51.140;6.296;2023-05-16T04:02:28;100851.88;;;6.99;100.00
18813;BME280;9534;51.140;6.296;2023-05-16T04:06:32;100842.53;;;7.02;100.00
18813;BME280;9534;51.140;6.296;2023-05-16T04:10:38;100854.97;;;6.96;100.00
18813;BME280;9534;51.140;6.296;2023-05-16T04:14:41;100857.03;;;6.94;100.00
18813;BME280;9534;51.140;6.296;2023-05-16T04:18:44;100868.00;;;6.86;100.00
18813;BME280;9534;51.140;6.296;2023-05-16T04:22:47;100872.41;;;6.87;100.00
18813;BME280;9534;51.140;6.296;2023-05-16T04:26:52;100877.75;;;6.95;100.00
18813;BME280;9534;51.140;6.296;2023-05-16T04:30:55;100878.94;;;7.01;100.00
18813;BME280;9534;51.140;6.296;2023-05-16T04:34:58;100880.13;;;6.98;100.00
18813;BME280;9534;51.140;6.296;2023-05-16T04:39:02;100885.56;;;6.98;100.00
18813;BME280;9534;51.140;6.296;2023-05-16T04:43:06;100889.91;;;7.07;100.00
18813;BME280;9534;51.140;6.296;2023-05-16T04:47:10;100895.50;;;7.14;100.00
18813;BME280;9534;51.140;6.296;2023-05-16T04:51:13;100895.97;;;7.17;100.00
18813;BME280;9534;51.140;6.296;2023-05-16T04:55:18;100903.09;;;7.18;100.00
18813;BME280;9534;51.140;6.296;2023-05-16T04:59:22;100902.00;;;7.27;100.00
18813;BME280;9534;51.140;6.296;2023-05-16T05:03:25;100914.22;;;7.31;100.00
18813;BME280;9534;51.140;6.296;2023-05-16T05:07:28;100905.06;;;7.46;100.00
18813;BME280;9534;51.140;6.296;2023-05-16T05:11:32;100917.72;;;7.62;100.00
18813;BME280;9534;51.140;6.296;2023-05-16T05:15:36;100904.31;;;7.75;100.00
18813;BME280;9534;51.140;6.296;2023-05-16T05:19:39;100902.03;;;7.78;100.00
18813;BME280;9534;51.140;6.296;2023-05-16T05:23:42;100903.44;;;7.89;100.00
18813;BME280;9534;51.140;6.296;2023-05-16T05:27:46;100911.16;;;8.00;100.00
18813;BME280;9534;51.140;6.296;2023-05-16T05:31:52;100916.34;;;8.09;100.00
18813;BME280;9534;51.140;6.296;2023-05-16T05:35:55;100920.84;;;8.17;100.00
18813;BME280;9534;51.140;6.296;2023-05-16T05:39:58;100921.25;;;8.28;100.00
18813;BME280;9534;51.140;6.296;2023-05-16T05:44:01;100916.28;;;8.32;100.00
18813;BME280;9534;51.140;6.296;2023-05-16T05:48:06;100923.50;;;8.54;100.00
18813;BME280;9534;51.140;6.296;2023-05-16T05:52:11;100924.31;;;8.68;100.00
18813;BME280;9534;51.140;6.296;2023-05-16T05:56:15;100918.84;;;8.83;100.00
18813;BME280;9534;51.140;6.296;2023-05-16T06:00:18;100920.88;;;8.95;100.00
18813;BME280;9534;51.140;6.296;2023-05-16T06:04:23;100914.47;;;8.88;100.00
18813;BME280;9534;51.140;6.296;2023-05-16T06:08:27;100926.59;;;9.00;100.00
18813;BME280;9534;51.140;6.296;2023-05-16T06:12:31;100924.91;;;9.20;100.00
18813;BME280;9534;51.140;6.296;2023-05-16T06:16:34;100921.63;;;9.52;100.00
18813;BME280;9534;51.140;6.296;2023-05-16T06:20:39;100919.81;;;9.59;100.00
18813;BME280;9534;51.140;6.296;2023-05-16T06:24:42;100922.44;;;10.22;100.00
18813;BME280;9534;51.140;6.296;2023-05-16T06:28:46;100924.38;;;10.68;100.00
18813;BME280;9534;51.140;6.296;2023-05-16T06:32:49;100932.44;;;10.83;100.00
18813;BME280;9534;51.140;6.296;2023-05-16T06:36:54;100932.13;;;10.65;100.00
18813;BME280;9534;51.140;6.296;2023-05-16T06:40:57;100940.34;;;10.65;100.00
18813;BME280;9534;51.140;6.296;2023-05-16T06:45:00;100936.09;;;10.56;100.00
18813;BME280;9534;51.140;6.296;2023-05-16T06:49:04;100961.56;;;10.22;100.00
18813;BME280;9534;51.140;6.296;2023-05-16T06:53:09;100960.91;;;9.93;100.00
18813;BME280;9534;51.140;6.296;2023-05-16T06:57:13;100973.00;;;9.84;100.00
18813;BME280;9534;51.140;6.296;2023-05-16T07:01:17;100977.94;;;10.16;100.00
18813;BME280;9534;51.140;6.296;2023-05-16T07:05:20;100973.75;;;10.20;100.00
18813;BME280;9534;51.140;6.296;2023-05-16T07:09:24;100977.41;;;10.27;100.00
18813;BME280;9534;51.140;6.296;2023-05-16T07:13:28;100975.03;;;10.58;100.00
18813;BME280;9534;51.140;6.296;2023-05-16T07:17:33;100989.03;;;10.42;100.00
18813;BME280;9534;51.140;6.296;2023-05-16T07:21:36;100978.50;;;10.39;100.00
18813;BME280;9534;51.140;6.296;2023-05-16T07:25:41;100986.94;;;10.37;100.00
18813;BME280;9534;51.140;6.296;2023-05-16T07:29:44;100997.34;;;10.55;100.00
18813;BME280;9534;51.140;6.296;2023-05-16T07:33:47;100996.78;;;10.66;100.00
18813;BME280;9534;51.140;6.296;2023-05-16T07:37:51;100999.72;;;11.05;100.00
18813;BME280;9534;51.140;6.296;2023-05-16T07:41:55;101004.34;;;11.70;100.00
18813;BME280;9534;51.140;6.296;2023-05-16T07:45:59;101005.03;;;11.19;100.00
18813;BME280;9534;51.140;6.296;2023-05-16T07:50:05;101003.34;;;11.11;100.00
18813;BME280;9534;51.140;6.296;2023-05-16T07:54:09;101003.84;;;10.54;100.00
18813;BME280;9534;51.140;6.296;2023-05-16T07:58:14;101011.25;;;10.26;100.00
18813;BME280;9534;51.140;6.296;2023-05-16T08:02:17;101002.88;;;11.02;100.00
18813;BME280;9534;51.140;6.296;2023-05-16T08:06:21;101001.84;;;10.69;100.00
18813;BME280;9534;51.140;6.296;2023-05-16T08:10:25;101005.84;;;11.86;100.00
18813;BME280;9534;51.140;6.296;2023-05-16T08:14:30;101008.34;;;12.65;100.00
18813;BME280;9534;51.140;6.296;2023-05-16T08:18:33;101014.03;;;12.50;100.00
18813;BME280;9534;51.140;6.296;2023-05-16T08:22:36;101021.78;;;12.86;100.00
18813;BME280;9534;51.140;6.296;2023-05-16T08:26:39;101025.13;;;11.45;100.00
18813;BME280;9534;51.140;6.296;2023-05-16T08:30:44;101018.50;;;13.28;100.00
18813;BME280;9534;51.140;6.296;2023-05-16T08:34:48;101014.03;;;13.70;100.00
18813;BME280;9534;51.140;6.296;2023-05-16T08:38:52;101018.22;;;14.77;100.00
18813;BME280;9534;51.140;6.296;2023-05-16T08:42:55;101025.28;;;14.49;100.00
18813;BME280;9534;51.140;6.296;2023-05-16T08:47:01;101018.69;;;16.05;100.00
18813;BME280;9534;51.140;6.296;2023-05-16T08:51:08;101022.91;;;15.12;100.00
18813;BME280;9534;51.140;6.296;2023-05-16T08:55:11;101017.00;;;12.62;100.00
18813;BME280;9534;51.140;6.296;2023-05-16T08:59:15;101026.34;;;11.96;100.00
18813;BME280;9534;51.140;6.296;2023-05-16T09:03:21;101021.13;;;12.97;100.00
18813;BME280;9534;51.140;6.296;2023-05-16T09:07:26;101026.00;;;15.70;100.00
18813;BME280;9534;51.140;6.296;2023-05-16T09:11:29;101029.41;;;15.36;100.00
18813;BME280;9534;51.140;6.296;2023-05-16T09:15:34;101022.34;;;13.95;100.00
18813;BME280;9534;51.140;6.296;2023-05-16T09:19:40;101022.78;;;14.65;100.00
18813;BME280;9534;51.140;6.296;2023-05-16T09:23:43;101025.19;;;13.75;100.00
18813;BME280;9534;51.140;6.296;2023-05-16T09:27:47;101022.19;;;12.96;100.00
18813;BME280;9534;51.140;6.296;2023-05-16T09:31:50;101017.44;;;12.59;100.00
18813;BME280;9534;51.140;6.296;2023-05-16T09:35:56;101013.53;;;12.92;100.00
18813;BME280;9534;51.140;6.296;2023-05-16T09:40:00;101008.81;;;13.19;100.00
18813;BME280;9534;51.140;6.296;2023-05-16T09:44:03;101014.38;;;13.80;100.00
18813;BME280;9534;51.140;6.296;2023-05-16T09:48:08;101009.91;;;15.67;100.00
18813;BME280;9534;51.140;6.296;2023-05-16T09:52:15;101016.34;;;14.04;100.00
18813;BME280;9534;51.140;6.296;2023-05-16T09:56:19;101021.63;;;14.06;100.00
18813;BME280;9534;51.140;6.296;2023-05-16T10:00:22;101023.06;;;14.08;100.00
18813;BME280;9534;51.140;6.296;2023-05-16T10:04:30;101040.31;;;13.66;100.00
18813;BME280;9534;51.140;6.296;2023-05-16T10:08:35;101028.53;;;12.90;100.00
18813;BME280;9534;51.140;6.296;2023-05-16T10:12:38;101024.97;;;12.89;100.00
18813;BME280;9534;51.140;6.296;2023-05-16T10:16:43;101028.63;;;13.34;100.00
18813;BME280;9534;51.140;6.296;2023-05-16T10:20:48;101017.00;;;14.73;100.00
18813;BME280;9534;51.140;6.296;2023-05-16T10:24:56;101033.00;;;16.24;100.00
18813;BME280;9534;51.140;6.296;2023-05-16T10:29:01;101032.34;;;15.05;100.00
18813;BME280;9534;51.140;6.296;2023-05-16T10:33:05;101030.47;;;15.53;100.00
18813;BME280;9534;51.140;6.296;2023-05-16T10:37:08;101033.81;;;14.65;100.00
18813;BME280;9534;51.140;6.296;2023-05-16T10:41:13;101028.81;;;15.16;100.00
18813;BME280;9534;51.140;6.296;2023-05-16T10:45:16;101042.16;;;14.03;100.00
18813;BME280;9534;51.140;6.296;2023-05-16T10:49:20;101020.66;;;14.18;100.00
18813;BME280;9534;51.140;6.296;2023-05-16T10:53:28;101011.47;;;15.45;100.00
18813;BME280;9534;51.140;6.296;2023-05-16T10:57:33;101019.56;;;16.39;100.00
18813;BME280;9534;51.140;6.296;2023-05-16T11:01:39;101012.47;;;15.32;100.00
18813;BME280;9534;51.140;6.296;2023-05-16T11:05:42;101011.00;;;15.48;100.00
18813;BME280;9534;51.140;6.296;2023-05-16T11:09:49;101012.59;;;16.37;100.00
18813;BME280;9534;51.140;6.296;2023-05-16T11:13:56;101005.16;;;14.90;100.00
18813;BME280;9534;51.140;6.296;2023-05-16T11:18:05;101011.94;;;14.70;100.00
18813;BME280;9534;51.140;6.296;2023-05-16T11:22:10;101022.63;;;14.42;100.00
18813;BME280;9534;51.140;6.296;2023-05-16T11:26:16;101022.19;;;14.14;100.00
18813;BME280;9534;51.140;6.296;2023-05-16T11:30:22;101018.09;;;14.48;100.00
18813;BME280;9534;51.140;6.296;2023-05-16T11:34:26;101014.91;;;16.51;100.00
18813;BME280;9534;51.140;6.296;2023-05-16T11:38:30;101022.47;;;15.63;100.00
18813;BME280;9534;51.140;6.296;2023-05-16T11:42:34;101029.88;;;15.15;100.00
18813;BME280;9534;51.140;6.296;2023-05-16T11:46:39;101025.13;;;15.04;100.00
18813;BME280;9534;51.140;6.296;2023-05-16T11:50:43;101035.16;;;15.82;89.80
18813;BME280;9534;51.140;6.296;2023-05-16T11:54:46;101031.59;;;15.93;77.47
18813;BME280;9534;51.140;6.296;2023-05-16T11:58:49;101023.78;;;15.90;81.43
18813;BME280;9534;51.140;6.296;2023-05-16T12:02:58;101024.22;;;17.19;85.09
18813;BME280;9534;51.140;6.296;2023-05-16T12:07:04;101032.09;;;16.53;84.58
18813;BME280;9534;51.140;6.296;2023-05-16T12:11:08;101020.84;;;16.25;80.86
18813;BME280;9534;51.140;6.296;2023-05-16T12:15:12;101045.53;;;15.98;78.79
18813;BME280;9534;51.140;6.296;2023-05-16T12:19:17;101028.00;;;16.44;87.25
18813;BME280;9534;51.140;6.296;2023-05-16T12:23:24;101018.84;;;18.36;80.56
18813;BME280;9534;51.140;6.296;2023-05-16T12:27:28;101005.47;;;17.21;67.13
18813;BME280;9534;51.140;6.296;2023-05-16T12:31:34;101015.53;;;17.50;68.90
18813;BME280;9534;51.140;6.296;2023-05-16T12:35:40;101009.53;;;17.30;70.88
18813;BME280;9534;51.140;6.296;2023-05-16T12:39:44;101015.03;;;17.53;94.07
18813;BME280;9534;51.140;6.296;2023-05-16T12:43:50;101013.28;;;16.21;100.00
18813;BME280;9534;51.140;6.296;2023-05-16T12:47:53;101025.28;;;15.09;100.00
18813;BME280;9534;51.140;6.296;2023-05-16T12:51:58;101024.00;;;14.93;100.00
18813;BME280;9534;51.140;6.296;2023-05-16T12:56:11;101025.19;;;14.97;100.00
18813;BME280;9534;51.140;6.296;2023-05-16T13:00:17;101034.69;;;14.41;100.00
18813;BME280;9534;51.140;6.296;2023-05-16T13:04:21;101036.56;;;15.73;100.00
18813;BME280;9534;51.140;6.296;2023-05-16T13:08:26;101026.13;;;17.30;100.00
18813;BME280;9534;51.140;6.296;2023-05-16T13:12:29;101027.53;;;18.28;91.79
18813;BME280;9534;51.140;6.296;2023-05-16T13:16:33;101042.19;;;18.12;89.41
18813;BME280;9534;51.140;6.296;2023-05-16T13:20:36;101044.00;;;16.02;100.00
18813;BME280;9534;51.140;6.296;2023-05-16T13:24:41;101046.03;;;15.65;100.00
18813;BME280;9534;51.140;6.296;2023-05-16T13:28:44;101047.72;;;15.12;100.00
18813;BME280;9534;51.140;6.296;2023-05-16T13:32:47;101040.63;;;14.63;100.00
18813;BME280;9534;51.140;6.296;2023-05-16T13:36:50;101043.16;;;14.64;100.00
18813;BME280;9534;51.140;6.296;2023-05-16T13:40:57;101042.34;;;14.39;100.00
18813;BME280;9534;51.140;6.296;2023-05-16T13:45:00;101046.09;;;14.45;100.00
18813;BME280;9534;51.140;6.296;2023-05-16T13:49:03;101035.94;;;14.45;100.00
18813;BME280;9534;51.140;6.296;2023-05-16T13:53:07;101035.84;;;14.94;100.00
18813;BME280;9534;51.140;6.296;2023-05-16T13:57:12;101049.31;;;15.02;100.00
18813;BME280;9534;51.140;6.296;2023-05-16T14:01:16;101052.09;;;15.20;100.00
18813;BME280;9534;51.140;6.296;2023-05-16T14:05:21;101052.88;;;14.67;100.00
18813;BME280;9534;51.140;6.296;2023-05-16T14:09:25;101047.47;;;14.78;100.00
18813;BME280;9534;51.140;6.296;2023-05-16T14:13:29;101064.66;;;15.16;100.00
18813;BME280;9534;51.140;6.296;2023-05-16T14:17:33;101061.50;;;17.28;100.00
18813;BME280;9534;51.140;6.296;2023-05-16T14:21:37;101064.66;;;16.51;100.00
18813;BME280;9534;51.140;6.296;2023-05-16T14:25:40;101063.63;;;15.82;100.00
18813;BME280;9534;51.140;6.296;2023-05-16T14:29:45;101075.25;;;15.37;100.00
18813;BME280;9534;51.140;6.296;2023-05-16T14:33:49;101073.22;;;15.08;100.00
18813;BME280;9534;51.140;6.296;2023-05-16T14:37:53;101076.41;;;14.87;100.00
18813;BME280;9534;51.140;6.296;2023-05-16T14:41:56;101068.25;;;15.16;100.00
18813;BME280;9534;51.140;6.296;2023-05-16T14:46:00;101063.78;;;14.80;100.00
18813;BME280;9534;51.140;6.296;2023-05-16T14:50:04;101069.88;;;15.24;100.00
18813;BME280;9534;51.140;6.296;2023-05-16T14:54:07;101075.53;;;15.29;100.00
18813;BME280;9534;51.140;6.296;2023-05-16T14:58:11;101069.28;;;15.40;100.00
18813;BME280;9534;51.140;6.296;2023-05-16T15:02:15;101076.00;;;15.26;100.00
18813;BME280;9534;51.140;6.296;2023-05-16T15:06:19;101082.22;;;14.79;100.00
18813;BME280;9534;51.140;6.296;2023-05-16T15:10:22;101088.50;;;14.86;100.00
18813;BME280;9534;51.140;6.296;2023-05-16T15:14:25;101081.19;;;15.16;100.00
18813;BME280;9534;51.140;6.296;2023-05-16T15:18:30;101084.47;;;14.64;100.00
18813;BME280;9534;51.140;6.296;2023-05-16T15:22:35;101098.69;;;14.61;100.00
18813;BME280;9534;51.140;6.296;2023-05-16T15:26:39;101092.25;;;14.49;100.00
18813;BME280;9534;51.140;6.296;2023-05-16T15:30:42;101094.41;;;14.41;100.00
18813;BME280;9534;51.140;6.296;2023-05-16T15:34:47;101101.88;;;14.34;100.00
18813;BME280;9534;51.140;6.296;2023-05-16T15:38:50;101102.50;;;14.36;100.00
18813;BME280;9534;51.140;6.296;2023-05-16T15:42:54;101113.34;;;14.55;100.00
18813;BME280;9534;51.140;6.296;2023-05-16T15:46:57;101109.09;;;15.44;100.00
18813;BME280;9534;51.140;6.296;2023-05-16T15:51:02;101114.63;;;15.44;100.00
18813;BME280;9534;51.140;6.296;2023-05-16T15:55:05;101117.34;;;16.79;100.00
18813;BME280;9534;51.140;6.296;2023-05-16T15:59:09;101115.91;;;16.07;100.00
18813;BME280;9534;51.140;6.296;2023-05-16T16:03:13;101122.28;;;16.07;100.00
18813;BME280;9534;51.140;6.296;2023-05-16T16:07:18;101121.31;;;14.70;100.00
18813;BME280;9534;51.140;6.296;2023-05-16T16:11:21;101119.56;;;14.75;100.00
18813;BME280;9534;51.140;6.296;2023-05-16T16:15:26;101120.06;;;14.41;100.00
18813;BME280;9534;51.140;6.296;2023-05-16T16:19:34;101118.59;;;14.39;100.00
18813;BME280;9534;51.140;6.296;2023-05-16T16:23:39;101131.56;;;14.32;100.00
18813;BME280;9534;51.140;6.296;2023-05-16T16:27:43;101123.25;;;14.38;100.00
18813;BME280;9534;51.140;6.296;2023-05-16T16:31:46;101128.41;;;14.28;100.00
18813;BME280;9534;51.140;6.296;2023-05-16T16:35:50;101124.53;;;14.05;100.00
18813;BME280;9534;51.140;6.296;2023-05-16T16:39:55;101124.34;;;13.93;100.00
18813;BME280;9534;51.140;6.296;2023-05-16T16:43:58;101120.09;;;13.97;100.00
18813;BME280;9534;51.140;6.296;2023-05-16T16:48:02;101129.88;;;13.93;100.00
18813;BME280;9534;51.140;6.296;2023-05-16T16:52:06;101124.78;;;13.90;100.00
18813;BME280;9534;51.140;6.296;2023-05-16T16:56:10;101121.91;;;13.72;100.00
18813;BME280;9534;51.140;6.296;2023-05-16T17:00:15;101127.50;;;13.59;100.00
18813;BME280;9534;51.140;6.296;2023-05-16T17:04:18;101129.09;;;13.80;100.00
18813;BME280;9534;51.140;6.296;2023-05-16T17:08:21;101132.47;;;13.82;100.00
18813;BME280;9534;51.140;6.296;2023-05-16T17:12:26;101144.44;;;13.57;100.00
18813;BME280;9534;51.140;6.296;2023-05-16T17:16:29;101150.41;;;13.41;100.00
18813;BME280;9534;51.140;6.296;2023-05-16T17:20:33;101157.66;;;13.22;100.00
18813;BME280;9534;51.140;6.296;2023-05-16T17:24:36;101166.31;;;13.26;100.00
18813;BME280;9534;51.140;6.296;2023-05-16T17:28:41;101168.84;;;13.21;100.00
18813;BME280;9534;51.140;6.296;2023-05-16T17:32:44;101168.03;;;13.07;100.00
18813;BME280;9534;51.140;6.296;2023-05-16T17:36:47;101166.97;;;13.02;100.00
18813;BME280;9534;51.140;6.296;2023-05-16T17:40:51;101170.34;;;13.04;100.00
18813;BME280;9534;51.140;6.296;2023-05-16T17:44:56;101169.72;;;13.02;100.00
18813;BME280;9534;51.140;6.296;2023-05-16T17:49:02;101172.44;;;12.89;100.00
18813;BME280;9534;51.140;6.296;2023-05-16T17:53:06;101168.63;;;12.90;100.00
18813;BME280;9534;51.140;6.296;2023-05-16T17:57:10;101166.56;;;12.79;100.00
18813;BME280;9534;51.140;6.296;2023-05-16T18:01:15;101171.19;;;12.78;100.00
18813;BME280;9534;51.140;6.296;2023-05-16T18:05:21;101175.81;;;12.58;100.00
18813;BME280;9534;51.140;6.296;2023-05-16T18:09:24;101187.47;;;12.67;100.00
18813;BME280;9534;51.140;6.296;2023-05-16T18:13:27;101184.28;;;12.57;100.00
18813;BME280;9534;51.140;6.296;2023-05-16T18:17:33;101188.94;;;12.63;100.00
18813;BME280;9534;51.140;6.296;2023-05-16T18:21:36;101191.25;;;12.59;100.00
18813;BME280;9534;51.140;6.296;2023-05-16T18:25:40;101184.25;;;12.44;100.00
18813;BME280;9534;51.140;6.296;2023-05-16T18:29:43;101189.75;;;12.44;100.00
18813;BME280;9534;51.140;6.296;2023-05-16T18:33:47;101188.47;;;12.33;100.00
18813;BME280;9534;51.140;6.296;2023-05-16T18:37:52;101180.66;;;12.31;100.00
18813;BME280;9534;51.140;6.296;2023-05-16T18:41:55;101189.31;;;12.34;100.00
18813;BME280;9534;51.140;6.296;2023-05-16T18:45:58;101184.66;;;12.28;100.00
18813;BME280;9534;51.140;6.296;2023-05-16T18:50:03;101181.50;;;12.25;100.00
18813;BME280;9534;51.140;6.296;2023-05-16T18:54:07;101185.47;;;12.22;100.00
18813;BME280;9534;51.140;6.296;2023-05-16T18:58:10;101186.75;;;12.20;100.00
18813;BME280;9534;51.140;6.296;2023-05-16T19:02:14;101184.63;;;12.15;100.00
18813;BME280;9534;51.140;6.296;2023-05-16T19:06:22;101189.09;;;12.23;100.00
18813;BME280;9534;51.140;6.296;2023-05-16T19:10:25;101188.63;;;12.19;100.00
18813;BME280;9534;51.140;6.296;2023-05-16T19:14:29;101193.66;;;12.03;100.00
18813;BME280;9534;51.140;6.296;2023-05-16T19:18:33;101196.41;;;12.09;100.00
18813;BME280;9534;51.140;6.296;2023-05-16T19:22:39;101201.47;;;11.99;100.00
18813;BME280;9534;51.140;6.296;2023-05-16T19:26:43;101208.22;;;12.03;100.00
18813;BME280;9534;51.140;6.296;2023-05-16T19:30:47;101205.69;;;11.95;100.00
18813;BME280;9534;51.140;6.296;2023-05-16T19:34:50;101214.97;;;11.94;100.00
18813;BME280;9534;51.140;6.296;2023-05-16T19:38:55;101220.44;;;11.94;100.00
18813;BME280;9534;51.140;6.296;2023-05-16T19:42:59;101217.47;;;11.89;100.00
18813;BME280;9534;51.140;6.296;2023-05-16T19:47:03;101219.97;;;11.84;100.00
18813;BME280;9534;51.140;6.296;2023-05-16T19:51:06;101223.38;;;11.86;100.00
18813;BME280;9534;51.140;6.296;2023-05-16T19:55:11;101228.38;;;11.76;100.00
18813;BME280;9534;51.140;6.296;2023-05-16T19:59:14;101225.34;;;11.65;100.00
18813;BME280;9534;51.140;6.296;2023-05-16T20:03:17;101228.28;;;11.63;100.00
18813;BME280;9534;51.140;6.296;2023-05-16T20:07:21;101232.53;;;11.66;100.00
18813;BME280;9534;51.140;6.296;2023-05-16T20:11:26;101239.91;;;11.65;100.00
18813;BME280;9534;51.140;6.296;2023-05-16T20:15:29;101235.97;;;11.74;100.00
18813;BME280;9534;51.140;6.296;2023-05-16T20:19:35;101243.31;;;11.74;100.00
18813;BME280;9534;51.140;6.296;2023-05-16T20:23:44;101246.94;;;11.74;100.00
18813;BME280;9534;51.140;6.296;2023-05-16T20:27:49;101250.19;;;11.63;100.00
18813;BME280;9534;51.140;6.296;2023-05-16T20:31:52;101245.94;;;11.61;100.00
18813;BME280;9534;51.140;6.296;2023-05-16T20:35:55;101257.09;;;11.53;100.00
18813;BME280;9534;51.140;6.296;2023-05-16T20:40:00;101261.88;;;11.44;100.00
18813;BME280;9534;51.140;6.296;2023-05-16T20:44:04;101268.66;;;11.48;100.00
18813;BME280;9534;51.140;6.296;2023-05-16T20:48:08;101257.19;;;11.38;100.00
18813;BME280;9534;51.140;6.296;2023-05-16T20:52:12;101260.84;;;11.18;100.00
18813;BME280;9534;51.140;6.296;2023-05-16T20:56:16;101262.78;;;10.97;100.00
18813;BME280;9534;51.140;6.296;2023-05-16T21:00:21;101267.50;;;10.82;100.00
18813;BME280;9534;51.140;6.296;2023-05-16T21:04:25;101274.78;;;10.75;100.00
18813;BME280;9534;51.140;6.296;2023-05-16T21:08:28;101277.41;;;10.83;100.00
18813;BME280;9534;51.140;6.296;2023-05-16T21:12:31;101287.63;;;10.95;100.00
18813;BME280;9534;51.140;6.296;2023-05-16T21:16:36;101291.59;;;10.72;100.00
18813;BME280;9534;51.140;6.296;2023-05-16T21:20:39;101282.56;;;10.36;100.00